sensor_id;sensor_type;location;lat;lon;timestamp;pressure;altitude;pressure_sealevel;temperature;humidity
72558;BME280;60583;50.094;8.748;2024-03-23T00:56:12;99515.34;;;10.01;89.35
72558;BME280;60583;50.094;8.748;2024-03-23T00:58:56;99509.38;;;10.05;89.38
72558;BME280;60583;50.094;8.748;2024-03-23T01:01:40;99515.94;;;10.03;89.34
72558;BME280;60583;50.094;8.748;2024-03-23T01:04:24;99493.47;;;9.92;89.69
72558;BME280;60583;50.094;8.748;2024-03-23T01:07:08;99484.63;;;9.74;90.79
72558;BME280;60583;50.094;8.748;2024-03-23T01:09:52;99487.22;;;9.80;90.74
72558;BME280;60583;50.094;8.748;2024-03-23T01:12:37;99492.88;;;9.90;90.52
72558;BME280;60583;50.094;8.748;2024-03-23T01:15:21;99480.28;;;9.79;90.50
72558;BME280;60583;50.094;8.748;2024-03-23T01:18:05;99487.78;;;9.89;91.52
72558;BME280;60583;50.094;8.748;2024-03-23T01:20:49;99480.13;;;9.99;91.86
72558;BME280;60583;50.094;8.748;2024-03-23T01:23:33;99467.91;;;9.91;91.15
72558;BME280;60583;50.094;8.748;2024-03-23T01:26:17;99486.72;;;9.96;91.51
72558;BME280;60583;50.094;8.748;2024-03-23T01:29:01;99469.69;;;9.97;91.21
72558;BME280;60583;50.094;8.748;2024-03-23T01:31:45;99458.84;;;9.92;90.48
72558;BME280;60583;50.094;8.748;2024-03-23T01:34:29;99457.91;;;10.11;90.32
72558;BME280;60583;50.094;8.748;2024-03-23T01:37:13;99444.41;;;10.06;90.20
72558;BME280;60583;50.094;8.748;2024-03-23T01:39:57;99462.09;;;10.25;90.23
72558;BME280;60583;50.094;8.748;2024-03-23T01:42:41;99426.03;;;9.98;90.83
72558;BME280;60583;50.094;8.748;2024-03-23T01:45:25;99450.09;;;10.16;91.82
72558;BME280;60583;50.094;8.748;2024-03-23T01:48:09;99449.19;;;10.22;91.19
72558;BME280;60583;50.094;8.748;2024-03-23T01:50:55;99440.19;;;10.23;91.26
72558;BME280;60583;50.094;8.748;2024-03-23T01:53:39;99426.28;;;10.21;90.95
72558;BME280;60583;50.094;8.748;2024-03-23T01:56:23;99389.94;;;10.02;92.04
72558;BME280;60583;50.094;8.748;2024-03-23T01:59:07;99368.31;;;9.92;92.22
72558;BME280;60583;50.094;8.748;2024-03-23T02:01:51;99393.19;;;9.86;92.43
72558;BME280;60583;50.094;8.748;2024-03-23T02:04:35;99410.97;;;10.17;91.85
72558;BME280;60583;50.094;8.748;2024-03-23T02:07:19;99393.09;;;10.17;91.14
72558;BME280;60583;50.094;8.748;2024-03-23T02:10:03;99404.53;;;10.24;91.44
72558;BME280;60583;50.094;8.748;2024-03-23T02:12:47;99392.31;;;10.17;91.66
72558;BME280;60583;50.094;8.748;2024-03-23T02:15:31;99374.84;;;9.96;91.83
72558;BME280;60583;50.094;8.748;2024-03-23T02:18:15;99396.44;;;10.13;91.72
72558;BME280;60583;50.094;8.748;2024-03-23T02:20:59;99379.81;;;10.11;91.32
72558;BME280;60583;50.094;8.748;2024-03-23T02:23:43;99367.06;;;9.95;92.63
72558;BME280;60583;50.094;8.748;2024-03-23T02:26:27;99369.56;;;9.90;92.85
72558;BME280;60583;50.094;8.748;2024-03-23T02:29:11;99372.69;;;10.05;92.25
72558;BME280;60583;50.094;8.748;2024-03-23T02:31:55;99353.56;;;9.96;92.38
72558;BME280;60583;50.094;8.748;2024-03-23T02:34:39;99362.56;;;9.95;93.29
72558;BME280;60583;50.094;8.748;2024-03-23T02:37:23;99346.97;;;9.99;92.97
72558;BME280;60583;50.094;8.748;2024-03-23T02:40:08;99354.63;;;10.13;92.96
72558;BME280;60583;50.094;8.748;2024-03-23T02:42:52;99354.00;;;10.11;92.77
72558;BME280;60583;50.094;8.748;2024-03-23T02:45:36;99344.47;;;10.04;92.41
72558;BME280;60583;50.094;8.748;2024-03-23T02:48:20;99334.91;;;9.96;92.96
72558;BME280;60583;50.094;8.748;2024-03-23T02:51:04;99351.63;;;10.03;92.88
72558;BME280;60583;50.094;8.748;2024-03-23T02:53:48;99342.75;;;9.91;93.38
72558;BME280;60583;50.094;8.748;2024-03-23T02:56:32;99343.72;;;9.97;93.65
72558;BME280;60583;50.094;8.748;2024-03-23T02:59:16;99334.38;;;9.88;94.15
72558;BME280;60583;50.094;8.748;2024-03-23T03:02:00;99321.94;;;9.82;94.12
72558;BME280;60583;50.094;8.748;2024-03-23T03:04:44;99330.88;;;9.87;94.35
72558;BME280;60583;50.094;8.748;2024-03-23T03:07:28;99330.09;;;9.87;94.27
72558;BME280;60583;50.094;8.748;2024-03-23T03:10:12;99332.66;;;9.75;94.92
72558;BME280;60583;50.094;8.748;2024-03-23T03:12:56;99323.47;;;9.71;95.80
72558;BME280;60583;50.094;8.748;2024-03-23T03:15:42;99323.31;;;9.66;96.42
72558;BME280;60583;50.094;8.748;2024-03-23T03:18:27;99305.56;;;9.60;95.75
72558;BME280;60583;50.094;8.748;2024-03-23T03:21:10;99307.56;;;9.64;95.63
72558;BME280;60583;50.094;8.748;2024-03-23T03:23:54;99323.53;;;9.64;95.72
72558;BME280;60583;50.094;8.748;2024-03-23T03:26:40;99323.06;;;9.74;95.75
72558;BME280;60583;50.094;8.748;2024-03-23T03:29:24;99313.66;;;9.72;96.09
72558;BME280;60583;50.094;8.748;2024-03-23T03:32:08;99299.53;;;9.71;95.84
72558;BME280;60583;50.094;8.748;2024-03-23T03:34:52;99296.97;;;9.58;96.58
72558;BME280;60583;50.094;8.748;2024-03-23T03:37:36;99312.09;;;9.64;96.36
72558;BME280;60583;50.094;8.748;2024-03-23T03:40:20;99295.22;;;9.70;96.79
72558;BME280;60583;50.094;8.748;2024-03-23T03:43:03;99255.56;;;9.44;96.28
72558;BME280;60583;50.094;8.748;2024-03-23T03:45:54;99310.13;;;9.53;97.85
72558;BME280;60583;50.094;8.748;2024-03-23T03:48:39;99301.88;;;9.61;97.19
72558;BME280;60583;50.094;8.748;2024-03-23T03:51:22;99302.78;;;9.73;96.27
72558;BME280;60583;50.094;8.748;2024-03-23T03:54:07;99304.22;;;9.94;95.37
72558;BME280;60583;50.094;8.748;2024-03-23T03:56:51;99304.78;;;9.96;94.67
72558;BME280;60583;50.094;8.748;2024-03-23T03:59:35;99295.31;;;10.00;93.95
72558;BME280;60583;50.094;8.748;2024-03-23T04:02:18;99277.03;;;9.85;93.88
72558;BME280;60583;50.094;8.748;2024-03-23T04:05:03;99295.41;;;9.93;93.94
72558;BME280;60583;50.094;8.748;2024-03-23T04:07:47;99276.38;;;9.90;93.83
72558;BME280;60583;50.094;8.748;2024-03-23T04:10:31;99278.69;;;9.86;93.21
72558;BME280;60583;50.094;8.748;2024-03-23T04:13:15;99311.75;;;9.97;94.25
72558;BME280;60583;50.094;8.748;2024-03-23T04:15:59;99318.19;;;10.07;93.88
72558;BME280;60583;50.094;8.748;2024-03-23T04:18:43;99294.53;;;9.99;94.14
72558;BME280;60583;50.094;8.748;2024-03-23T04:21:29;99313.16;;;9.99;94.35
72558;BME280;60583;50.094;8.748;2024-03-23T04:24:12;99313.06;;;9.88;94.58
72558;BME280;60583;50.094;8.748;2024-03-23T04:26:56;99333.06;;;9.97;95.66
72558;BME280;60583;50.094;8.748;2024-03-23T04:29:41;99315.41;;;9.78;96.01
72558;BME280;60583;50.094;8.748;2024-03-23T04:32:25;99308.75;;;9.69;95.61
72558;BME280;60583;50.094;8.748;2024-03-23T04:35:09;99360.94;;;9.94;95.17
72558;BME280;60583;50.094;8.748;2024-03-23T04:37:56;99356.34;;;9.83;96.45
72558;BME280;60583;50.094;8.748;2024-03-23T04:40:42;99349.66;;;9.74;96.38
72558;BME280;60583;50.094;8.748;2024-03-23T04:43:26;99350.59;;;9.61;97.02
72558;BME280;60583;50.094;8.748;2024-03-23T04:46:10;99331.75;;;9.38;98.09
72558;BME280;60583;50.094;8.748;2024-03-23T04:48:54;99321.25;;;9.19;98.40
72558;BME280;60583;50.094;8.748;2024-03-23T04:51:40;99341.22;;;9.03;98.80
72558;BME280;60583;50.094;8.748;2024-03-23T04:54:29;99337.50;;;9.04;99.54
72558;BME280;60583;50.094;8.748;2024-03-23T04:57:13;99324.75;;;8.81;99.10
72558;BME280;60583;50.094;8.748;2024-03-23T04:59:57;99331.31;;;8.79;98.94
72558;BME280;60583;50.094;8.748;2024-03-23T05:02:43;99377.47;;;8.91;97.50
72558;BME280;60583;50.094;8.748;2024-03-23T05:05:27;99376.91;;;8.82;97.51
72558;BME280;60583;50.094;8.748;2024-03-23T05:08:10;99371.34;;;8.90;96.15
72558;BME280;60583;50.094;8.748;2024-03-23T05:10:55;99374.84;;;8.84;94.14
72558;BME280;60583;50.094;8.748;2024-03-23T05:13:38;99373.66;;;8.80;93.18
72558;BME280;60583;50.094;8.748;2024-03-23T05:16:22;99352.06;;;8.57;91.93
72558;BME280;60583;50.094;8.748;2024-03-23T05:19:06;99391.88;;;8.70;91.65
72558;BME280;60583;50.094;8.748;2024-03-23T05:21:50;99393.69;;;8.76;92.25
72558;BME280;60583;50.094;8.748;2024-03-23T05:24:34;99412.69;;;8.80;92.14
72558;BME280;60583;50.094;8.748;2024-03-23T05:27:18;99405.22;;;8.57;90.84
72558;BME280;60583;50.094;8.748;2024-03-23T05:30:02;99451.50;;;8.87;90.52
72558;BME280;60583;50.094;8.748;2024-03-23T05:32:47;99447.88;;;8.75;88.42
72558;BME280;60583;50.094;8.748;2024-03-23T05:35:31;99436.69;;;8.60;88.48
72558;BME280;60583;50.094;8.748;2024-03-23T05:38:15;99459.56;;;8.61;89.58
72558;BME280;60583;50.094;8.748;2024-03-23T05:41:00;99469.78;;;8.64;89.58
72558;BME280;60583;50.094;8.748;2024-03-23T05:43:44;99469.19;;;8.49;89.52
72558;BME280;60583;50.094;8.748;2024-03-23T05:46:28;99488.00;;;8.48;88.63
72558;BME280;60583;50.094;8.748;2024-03-23T05:49:11;99490.03;;;8.52;89.77
72558;BME280;60583;50.094;8.748;2024-03-23T05:51:55;99496.19;;;8.46;89.16
72558;BME280;60583;50.094;8.748;2024-03-23T05:54:39;99497.19;;;8.52;88.90
72558;BME280;60583;50.094;8.748;2024-03-23T05:57:23;99519.66;;;8.62;87.43
72558;BME280;60583;50.094;8.748;2024-03-23T06:00:08;99513.56;;;8.55;87.21
72558;BME280;60583;50.094;8.748;2024-03-23T06:03:00;99524.38;;;8.60;87.33
72558;BME280;60583;50.094;8.748;2024-03-23T06:05:44;99534.19;;;8.53;87.58
72558;BME280;60583;50.094;8.748;2024-03-23T06:08:28;99543.78;;;8.54;86.84
72558;BME280;60583;50.094;8.748;2024-03-23T06:11:12;99535.81;;;8.41;87.68
72558;BME280;60583;50.094;8.748;2024-03-23T06:13:56;99507.81;;;8.19;87.84
72558;BME280;60583;50.094;8.748;2024-03-23T06:16:40;99554.00;;;8.44;88.10
72558;BME280;60583;50.094;8.748;2024-03-23T06:19:24;99543.19;;;8.52;87.96
72558;BME280;60583;50.094;8.748;2024-03-23T06:22:10;99520.91;;;8.47;87.53
72558;BME280;60583;50.094;8.748;2024-03-23T06:24:54;99540.31;;;8.47;87.80
72558;BME280;60583;50.094;8.748;2024-03-23T06:27:38;99521.31;;;8.50;86.95
72558;BME280;60583;50.094;8.748;2024-03-23T06:30:23;99562.38;;;8.54;86.57
72558;BME280;60583;50.094;8.748;2024-03-23T06:33:07;99546.25;;;8.36;84.70
72558;BME280;60583;50.094;8.748;2024-03-23T06:35:51;99564.44;;;8.39;82.64
72558;BME280;60583;50.094;8.748;2024-03-23T06:38:39;99571.59;;;8.39;82.71
72558;BME280;60583;50.094;8.748;2024-03-23T06:41:23;99598.38;;;8.30;82.71
72558;BME280;60583;50.094;8.748;2024-03-23T06:44:07;99601.97;;;8.16;82.17
72558;BME280;60583;50.094;8.748;2024-03-23T06:46:51;99631.41;;;8.21;80.42
72558;BME280;60583;50.094;8.748;2024-03-23T06:49:35;99612.38;;;8.11;80.90
72558;BME280;60583;50.094;8.748;2024-03-23T06:52:18;99638.53;;;8.21;81.18
72558;BME280;60583;50.094;8.748;2024-03-23T06:55:03;99645.50;;;8.15;81.03
72558;BME280;60583;50.094;8.748;2024-03-23T06:57:48;99622.53;;;7.82;80.34
72558;BME280;60583;50.094;8.748;2024-03-23T07:00:32;99662.44;;;8.08;81.04
72558;BME280;60583;50.094;8.748;2024-03-23T07:03:16;99659.56;;;8.03;81.85
72558;BME280;60583;50.094;8.748;2024-03-23T07:06:00;99664.44;;;7.93;80.61
72558;BME280;60583;50.094;8.748;2024-03-23T07:08:44;99666.66;;;7.96;81.22
72558;BME280;60583;50.094;8.748;2024-03-23T07:11:28;99682.41;;;8.04;79.66
72558;BME280;60583;50.094;8.748;2024-03-23T07:14:12;99667.94;;;8.00;79.47
72558;BME280;60583;50.094;8.748;2024-03-23T07:16:56;99694.75;;;8.24;79.42
72558;BME280;60583;50.094;8.748;2024-03-23T07:19:40;99695.38;;;8.26;78.50
72558;BME280;60583;50.094;8.748;2024-03-23T07:22:24;99710.75;;;8.44;79.74
72558;BME280;60583;50.094;8.748;2024-03-23T07:25:08;99716.47;;;8.41;78.85
72558;BME280;60583;50.094;8.748;2024-03-23T07:27:53;99723.28;;;8.63;78.35
72558;BME280;60583;50.094;8.748;2024-03-23T07:30:37;99735.91;;;8.61;78.38
72558;BME280;60583;50.094;8.748;2024-03-23T07:33:21;99722.03;;;8.53;79.20
72558;BME280;60583;50.094;8.748;2024-03-23T07:36:06;99754.56;;;8.68;79.55
72558;BME280;60583;50.094;8.748;2024-03-23T07:38:50;99744.06;;;8.47;78.02
72558;BME280;60583;50.094;8.748;2024-03-23T07:41:34;99765.75;;;8.50;78.15
72558;BME280;60583;50.094;8.748;2024-03-23T07:44:18;99755.56;;;8.60;77.47
72558;BME280;60583;50.094;8.748;2024-03-23T07:47:03;99766.97;;;8.54;74.46
72558;BME280;60583;50.094;8.748;2024-03-23T07:49:47;99770.84;;;8.52;74.59
72558;BME280;60583;50.094;8.748;2024-03-23T07:52:31;99766.38;;;8.52;72.69
72558;BME280;60583;50.094;8.748;2024-03-23T07:55:15;99755.94;;;8.57;73.40
72558;BME280;60583;50.094;8.748;2024-03-23T07:57:59;99792.22;;;8.91;74.08
72558;BME280;60583;50.094;8.748;2024-03-23T08:00:43;99799.41;;;9.04;73.68
72558;BME280;60583;50.094;8.748;2024-03-23T08:03:27;99789.16;;;9.20;71.81
72558;BME280;60583;50.094;8.748;2024-03-23T08:06:13;99809.41;;;9.60;71.01
72558;BME280;60583;50.094;8.748;2024-03-23T08:08:57;99804.69;;;9.62;70.12
72558;BME280;60583;50.094;8.748;2024-03-23T08:11:44;99810.75;;;10.02;68.25
72558;BME280;60583;50.094;8.748;2024-03-23T08:14:30;99786.59;;;10.17;68.09
72558;BME280;60583;50.094;8.748;2024-03-23T08:17:14;99809.47;;;10.31;68.01
72558;BME280;60583;50.094;8.748;2024-03-23T08:19:58;99816.09;;;10.15;67.03
72558;BME280;60583;50.094;8.748;2024-03-23T08:22:42;99809.78;;;9.90;67.48
72558;BME280;60583;50.094;8.748;2024-03-23T08:25:26;99824.75;;;9.65;68.10
72558;BME280;60583;50.094;8.748;2024-03-23T08:28:10;99806.34;;;9.57;68.29
72558;BME280;60583;50.094;8.748;2024-03-23T08:30:54;99852.63;;;9.43;68.42
72558;BME280;60583;50.094;8.748;2024-03-23T08:33:39;99837.25;;;9.78;67.78
72558;BME280;60583;50.094;8.748;2024-03-23T08:36:23;99840.69;;;10.04;66.52
72558;BME280;60583;50.094;8.748;2024-03-23T08:39:07;99827.53;;;10.22;66.08
72558;BME280;60583;50.094;8.748;2024-03-23T08:41:51;99840.44;;;10.32;66.07
72558;BME280;60583;50.094;8.748;2024-03-23T08:44:35;99856.63;;;10.75;64.50
72558;BME280;60583;50.094;8.748;2024-03-23T08:47:19;99818.75;;;10.66;63.09
72558;BME280;60583;50.094;8.748;2024-03-23T08:50:03;99847.31;;;10.90;63.33
72558;BME280;60583;50.094;8.748;2024-03-23T08:52:50;99849.03;;;11.16;64.22
72558;BME280;60583;50.094;8.748;2024-03-23T08:55:34;99851.53;;;11.42;62.44
72558;BME280;60583;50.094;8.748;2024-03-23T08:58:19;99849.59;;;11.99;61.51
72558;BME280;60583;50.094;8.748;2024-03-23T09:01:13;99842.91;;;11.90;59.70
72558;BME280;60583;50.094;8.748;2024-03-23T09:03:57;99850.56;;;12.04;61.21
72558;BME280;60583;50.094;8.748;2024-03-23T09:06:44;99865.22;;;12.38;60.01
72558;BME280;60583;50.094;8.748;2024-03-23T09:09:28;99821.72;;;12.13;57.04
72558;BME280;60583;50.094;8.748;2024-03-23T09:12:12;99864.31;;;12.62;57.43
72558;BME280;60583;50.094;8.748;2024-03-23T09:14:56;99867.53;;;13.01;57.62
72558;BME280;60583;50.094;8.748;2024-03-23T09:17:40;99863.34;;;13.05;54.72
72558;BME280;60583;50.094;8.748;2024-03-23T09:20:24;99860.41;;;12.76;55.92
72558;BME280;60583;50.094;8.748;2024-03-23T09:23:08;99875.31;;;12.72;55.15
72558;BME280;60583;50.094;8.748;2024-03-23T09:25:52;99898.09;;;12.93;55.99
72558;BME280;60583;50.094;8.748;2024-03-23T09:28:36;99889.25;;;12.93;56.84
72558;BME280;60583;50.094;8.748;2024-03-23T09:31:20;99837.19;;;12.59;54.36
72558;BME280;60583;50.094;8.748;2024-03-23T09:34:06;99853.13;;;13.31;53.77
72558;BME280;60583;50.094;8.748;2024-03-23T09:36:53;99869.69;;;13.52;52.27
72558;BME280;60583;50.094;8.748;2024-03-23T09:39:37;99871.09;;;13.54;52.45
72558;BME280;60583;50.094;8.748;2024-03-23T09:42:21;99872.28;;;13.93;51.58
72558;BME280;60583;50.094;8.748;2024-03-23T09:45:06;99867.25;;;14.43;49.79
72558;BME280;60583;50.094;8.748;2024-03-23T09:47:55;99861.34;;;13.94;51.41
72558;BME280;60583;50.094;8.748;2024-03-23T09:50:44;99883.28;;;13.50;51.91
72558;BME280;60583;50.094;8.748;2024-03-23T09:53:28;99876.56;;;13.18;52.88
72558;BME280;60583;50.094;8.748;2024-03-23T09:56:12;99880.28;;;13.58;50.89
72558;BME280;60583;50.094;8.748;2024-03-23T09:59:03;99878.44;;;14.28;49.33
72558;BME280;60583;50.094;8.748;2024-03-23T10:01:48;99886.63;;;14.22;48.99
72558;BME280;60583;50.094;8.748;2024-03-23T10:04:36;99895.66;;;13.51;49.53
72558;BME280;60583;50.094;8.748;2024-03-23T10:07:23;99887.84;;;12.90;48.51
72558;BME280;60583;50.094;8.748;2024-03-23T10:10:11;99855.81;;;12.36;49.64
72558;BME280;60583;50.094;8.748;2024-03-23T10:12:55;99888.25;;;12.57;50.33
72558;BME280;60583;50.094;8.748;2024-03-23T10:15:39;99892.13;;;12.43;50.66
72558;BME280;60583;50.094;8.748;2024-03-23T10:18:23;99879.88;;;12.36;50.00
72558;BME280;60583;50.094;8.748;2024-03-23T10:21:11;99873.44;;;12.18;50.68
72558;BME280;60583;50.094;8.748;2024-03-23T10:23:55;99843.25;;;11.75;50.99
72558;BME280;60583;50.094;8.748;2024-03-23T10:26:42;99860.53;;;11.73;52.22
72558;BME280;60583;50.094;8.748;2024-03-23T10:29:26;99853.47;;;12.39;49.56
72558;BME280;60583;50.094;8.748;2024-03-23T10:32:14;99860.13;;;14.88;44.53
72558;BME280;60583;50.094;8.748;2024-03-23T10:35:18;99866.31;;;13.56;45.81
72558;BME280;60583;50.094;8.748;2024-03-23T10:38:05;99866.16;;;12.80;46.10
72558;BME280;60583;50.094;8.748;2024-03-23T10:40:50;99841.38;;;12.18;47.34
72558;BME280;60583;50.094;8.748;2024-03-23T10:43:34;99855.53;;;12.01;48.83
72558;BME280;60583;50.094;8.748;2024-03-23T10:46:19;99844.13;;;11.69;49.59
72558;BME280;60583;50.094;8.748;2024-03-23T10:49:06;99847.69;;;13.96;46.18
72558;BME280;60583;50.094;8.748;2024-03-23T10:51:51;99847.03;;;13.24;45.78
72558;BME280;60583;50.094;8.748;2024-03-23T10:54:35;99823.59;;;12.60;47.93
72558;BME280;60583;50.094;8.748;2024-03-23T10:57:38;99823.63;;;12.24;49.96
72558;BME280;60583;50.094;8.748;2024-03-23T11:00:24;99825.19;;;11.71;49.53
72558;BME280;60583;50.094;8.748;2024-03-23T11:06:46;99885.72;;;10.39;58.32
72558;BME280;60583;50.094;8.748;2024-03-23T11:15:11;99904.69;;;8.91;67.60
72558;BME280;60583;50.094;8.748;2024-03-23T11:18:06;99902.94;;;9.25;67.77
72558;BME280;60583;50.094;8.748;2024-03-23T11:20:52;99873.84;;;9.04;67.92
72558;BME280;60583;50.094;8.748;2024-03-23T11:23:36;99900.44;;;9.04;67.79
72558;BME280;60583;50.094;8.748;2024-03-23T11:26:20;99891.84;;;9.08;67.47
72558;BME280;60583;50.094;8.748;2024-03-23T11:29:13;99899.63;;;9.10;64.71
72558;BME280;60583;50.094;8.748;2024-03-23T11:31:57;99902.47;;;8.95;63.41
72558;BME280;60583;50.094;8.748;2024-03-23T11:34:42;99893.81;;;8.80;64.48
72558;BME280;60583;50.094;8.748;2024-03-23T11:37:26;99901.84;;;8.99;64.70
72558;BME280;60583;50.094;8.748;2024-03-23T11:40:18;99900.44;;;9.10;65.26
72558;BME280;60583;50.094;8.748;2024-03-23T11:43:05;99897.16;;;9.02;66.10
72558;BME280;60583;50.094;8.748;2024-03-23T11:45:50;99879.97;;;8.97;66.51
72558;BME280;60583;50.094;8.748;2024-03-23T11:48:38;99870.94;;;8.85;64.93
72558;BME280;60583;50.094;8.748;2024-03-23T11:51:22;99880.91;;;8.70;65.85
72558;BME280;60583;50.094;8.748;2024-03-23T11:54:09;99852.44;;;8.64;66.31
72558;BME280;60583;50.094;8.748;2024-03-23T11:56:57;99836.06;;;8.48;66.13
72558;BME280;60583;50.094;8.748;2024-03-23T11:59:42;99877.31;;;8.97;65.04
72558;BME280;60583;50.094;8.748;2024-03-23T12:02:27;99818.00;;;9.04;64.06
72558;BME280;60583;50.094;8.748;2024-03-23T12:05:15;99837.53;;;12.33;55.36
72558;BME280;60583;50.094;8.748;2024-03-23T12:08:19;99849.94;;;15.18;48.28
72558;BME280;60583;50.094;8.748;2024-03-23T12:11:06;99825.94;;;16.12;44.44
72558;BME280;60583;50.094;8.748;2024-03-23T12:13:50;99831.63;;;16.53;43.20
72558;BME280;60583;50.094;8.748;2024-03-23T12:16:35;99823.25;;;18.45;39.66
72558;BME280;60583;50.094;8.748;2024-03-23T12:19:19;99819.22;;;19.40;37.69
72558;BME280;60583;50.094;8.748;2024-03-23T12:22:07;99815.00;;;18.67;38.42
72558;BME280;60583;50.094;8.748;2024-03-23T12:24:52;99815.06;;;18.87;36.32
72558;BME280;60583;50.094;8.748;2024-03-23T12:27:36;99790.00;;;19.62;35.75
72558;BME280;60583;50.094;8.748;2024-03-23T12:30:20;99797.53;;;19.15;37.34
72558;BME280;60583;50.094;8.748;2024-03-23T12:33:04;99763.16;;;19.96;33.45
72558;BME280;60583;50.094;8.748;2024-03-23T12:35:49;99775.91;;;19.10;34.63
72558;BME280;60583;50.094;8.748;2024-03-23T12:38:33;99756.44;;;18.98;33.75
72558;BME280;60583;50.094;8.748;2024-03-23T12:41:17;99794.22;;;20.29;32.63
72558;BME280;60583;50.094;8.748;2024-03-23T12:44:01;99774.75;;;20.07;31.72
72558;BME280;60583;50.094;8.748;2024-03-23T12:46:45;99775.09;;;19.30;33.08
72558;BME280;60583;50.094;8.748;2024-03-23T12:49:29;99780.72;;;18.73;33.74
72558;BME280;60583;50.094;8.748;2024-03-23T12:52:13;99769.50;;;16.87;36.60
72558;BME280;60583;50.094;8.748;2024-03-23T12:54:57;99781.09;;;17.82;34.39
72558;BME280;60583;50.094;8.748;2024-03-23T12:57:41;99748.16;;;15.88;37.95
72558;BME280;60583;50.094;8.748;2024-03-23T13:00:25;99758.81;;;16.22;38.04
72558;BME280;60583;50.094;8.748;2024-03-23T13:03:13;99771.78;;;15.03;40.17
72558;BME280;60583;50.094;8.748;2024-03-23T13:05:57;99736.50;;;13.98;41.30
72558;BME280;60583;50.094;8.748;2024-03-23T13:08:42;99746.56;;;13.68;42.24
72558;BME280;60583;50.094;8.748;2024-03-23T13:11:28;99753.34;;;13.36;43.23
72558;BME280;60583;50.094;8.748;2024-03-23T13:14:12;99752.03;;;13.15;44.71
72558;BME280;60583;50.094;8.748;2024-03-23T13:16:58;99646.75;;;11.97;44.85
72558;BME280;60583;50.094;8.748;2024-03-23T13:19:42;99748.44;;;12.21;46.46
72558;BME280;60583;50.094;8.748;2024-03-23T13:22:26;99781.91;;;12.05;47.20
72558;BME280;60583;50.094;8.748;2024-03-23T13:25:10;99816.94;;;11.23;52.77
72558;BME280;60583;50.094;8.748;2024-03-23T13:27:54;99827.31;;;10.75;55.93
72558;BME280;60583;50.094;8.748;2024-03-23T13:30:38;99845.03;;;9.86;65.21
72558;BME280;60583;50.094;8.748;2024-03-23T13:33:22;99883.31;;;9.32;72.11
72558;BME280;60583;50.094;8.748;2024-03-23T13:36:06;99876.72;;;9.09;73.08
72558;BME280;60583;50.094;8.748;2024-03-23T13:38:50;99886.44;;;8.75;75.07
72558;BME280;60583;50.094;8.748;2024-03-23T13:41:34;99854.28;;;8.64;75.91
72558;BME280;60583;50.094;8.748;2024-03-23T13:44:18;99880.31;;;8.81;77.51
72558;BME280;60583;50.094;8.748;2024-03-23T13:47:02;99895.13;;;9.10;76.76
72558;BME280;60583;50.094;8.748;2024-03-23T13:49:47;99864.47;;;9.27;78.47
72558;BME280;60583;50.094;8.748;2024-03-23T13:52:33;99893.16;;;9.84;77.20
72558;BME280;60583;50.094;8.748;2024-03-23T13:55:16;99862.84;;;9.85;77.95
72558;BME280;60583;50.094;8.748;2024-03-23T13:58:02;99870.84;;;9.92;78.60
72558;BME280;60583;50.094;8.748;2024-03-23T14:00:47;99866.13;;;9.74;76.17
72558;BME280;60583;50.094;8.748;2024-03-23T14:03:31;99855.06;;;9.57;74.98
72558;BME280;60583;50.094;8.748;2024-03-23T14:06:15;99860.22;;;9.59;74.98
72558;BME280;60583;50.094;8.748;2024-03-23T14:08:59;99852.19;;;9.72;74.26
72558;BME280;60583;50.094;8.748;2024-03-23T14:11:43;99840.72;;;9.65;75.74
72558;BME280;60583;50.094;8.748;2024-03-23T14:14:27;99843.38;;;9.78;75.28
72558;BME280;60583;50.094;8.748;2024-03-23T14:17:11;99842.38;;;9.66;72.15
72558;BME280;60583;50.094;8.748;2024-03-23T14:19:58;99857.31;;;9.67;69.87
72558;BME280;60583;50.094;8.748;2024-03-23T14:22:44;99844.41;;;9.77;68.64
72558;BME280;60583;50.094;8.748;2024-03-23T14:25:28;99851.78;;;9.82;73.01
72558;BME280;60583;50.094;8.748;2024-03-23T14:28:14;99808.78;;;9.78;69.28
72558;BME280;60583;50.094;8.748;2024-03-23T14:30:58;99811.78;;;10.08;66.70
72558;BME280;60583;50.094;8.748;2024-03-23T14:33:42;99832.69;;;10.04;68.11
72558;BME280;60583;50.094;8.748;2024-03-23T14:36:34;99772.16;;;9.54;69.08
72558;BME280;60583;50.094;8.748;2024-03-23T14:39:18;99822.28;;;9.83;66.21
72558;BME280;60583;50.094;8.748;2024-03-23T14:42:05;99816.97;;;9.83;67.23
72558;BME280;60583;50.094;8.748;2024-03-23T14:44:52;99806.28;;;9.96;66.86
72558;BME280;60583;50.094;8.748;2024-03-23T14:47:37;99821.88;;;9.86;67.82
72558;BME280;60583;50.094;8.748;2024-03-23T14:50:21;99806.28;;;9.90;68.09
72558;BME280;60583;50.094;8.748;2024-03-23T14:53:05;99814.69;;;9.93;66.47
72558;BME280;60583;50.094;8.748;2024-03-23T14:55:49;99800.97;;;9.83;68.19
72558;BME280;60583;50.094;8.748;2024-03-23T14:58:33;99821.41;;;10.09;69.43
72558;BME280;60583;50.094;8.748;2024-03-23T15:01:20;99814.66;;;10.06;67.79
72558;BME280;60583;50.094;8.748;2024-03-23T15:04:04;99789.06;;;9.99;67.50
72558;BME280;60583;50.094;8.748;2024-03-23T15:06:48;99806.25;;;10.09;66.75
72558;BME280;60583;50.094;8.748;2024-03-23T15:09:33;99780.84;;;10.00;67.11
72558;BME280;60583;50.094;8.748;2024-03-23T15:12:17;99776.34;;;10.14;66.25
72558;BME280;60583;50.094;8.748;2024-03-23T15:15:01;99801.53;;;10.24;65.78
72558;BME280;60583;50.094;8.748;2024-03-23T15:17:45;99796.66;;;9.95;66.63
72558;BME280;60583;50.094;8.748;2024-03-23T15:20:29;99798.22;;;10.29;65.61
72558;BME280;60583;50.094;8.748;2024-03-23T15:23:13;99765.28;;;10.17;65.19
72558;BME280;60583;50.094;8.748;2024-03-23T15:25:58;99791.03;;;10.30;64.82
72558;BME280;60583;50.094;8.748;2024-03-23T15:28:43;99784.91;;;10.22;65.23
72558;BME280;60583;50.094;8.748;2024-03-23T15:31:39;99746.28;;;9.94;65.45
72558;BME280;60583;50.094;8.748;2024-03-23T15:34:23;99744.06;;;9.78;67.44
72558;BME280;60583;50.094;8.748;2024-03-23T15:37:07;99740.34;;;9.92;66.91
72558;BME280;60583;50.094;8.748;2024-03-23T15:39:51;99763.34;;;9.60;68.05
72558;BME280;60583;50.094;8.748;2024-03-23T15:42:36;99734.31;;;9.45;68.31
72558;BME280;60583;50.094;8.748;2024-03-23T15:45:20;99736.53;;;9.55;68.66